Cartama, Spain
Current Conditions -  °F | °C
As of 9:30 AM on Saturday 22 Nov 2014 (Local Time) from LEMG Reporting Station
Clear Clear  
Wind Chill: 64°   Ceiling: Unl
Heat Index: 64°   Visibility: 6mi
Dew Point: 57°   Wind: 0mph
Humidity: 77%   Direction: NA
Pressure: 29.88"   Gusts: NA
Location:  36.71°N, 4.63°W
Report Text: LEMG 220830Z 00000KT CAVOK 18/14 Q1012 NOSIG
Loading
Personal Weather Stations






























Interactive Weather Map New forecast layout! Learn more

10-Day Weather Forecast

Advertisements
Track Severe Weather on mobile